Time;durP1;ratioP1;P1;durP2;ratioP2;P2;SDS_P1;SDS_P2;PMS_P1;PMS_P2;Temp;Humidity;BMP_temperature;BMP_pressure;BME280_temperature;BME280_humidity;BME280_pressure;Samples;Min_cycle;Max_cycle;Signal;HPM_P1;HPM_P2
2022/06/11 00:01:04;;;;;;;;;;;;;;;19.51;60.25;99798.38;4365986;32;19982;-93
2022/06/11 00:03:29;;;;;;;;;;;;;;;19.86;60.27;99795.97;4366222;32;20014;-94
2022/06/11 00:05:55;;;;;;;;;;;;;;;19.81;60.26;99788.37;4366350;32;20010;-93
2022/06/11 00:08:21;;;;;;;;;;;;;;;19.64;60.25;99796.63;4366552;32;20003;-93
2022/06/11 00:10:46;;;;;;;;;;;;;;;19.70;60.25;99795.34;4366062;32;20284;-92
2022/06/11 00:13:12;;;;;;;;;;;;;;;19.60;60.25;99792.50;4365713;32;19997;-92
2022/06/11 00:15:37;;;;;;;;;;;;;;;19.71;60.26;99789.97;4365726;32;20039;-91
2022/06/11 00:18:03;;;;;;;;;;;;;;;19.76;60.25;99795.78;4365680;32;20001;-93
2022/06/11 00:20:28;;;;;;;;;;;;;;;19.89;60.26;99782.56;4378034;32;20018;-92
2022/06/11 00:22:53;;;;;;;;;;;;;;;19.80;60.26;99778.75;4377794;32;20021;-92
2022/06/11 00:25:19;;;;;;;;;;;;;;;19.97;60.27;99784.66;4365398;32;20066;-92
2022/06/11 00:27:44;;;;;;;;;;;;;;;19.82;60.26;99786.56;4365745;32;20043;-92
2022/06/11 00:30:11;;;;;;;;;;;;;;;19.89;60.26;99796.63;4365376;32;20018;-93
2022/06/11 00:32:37;;;;;;;;;;;;;;;19.95;60.27;99784.78;4377887;32;20321;-92
2022/06/11 00:35:03;;;;;;;;;;;;;;;19.96;60.27;99781.19;4365536;32;20103;-91
2022/06/11 00:37:28;;;;;;;;;;;;;;;19.91;60.27;99781.50;4366061;32;20003;-92
2022/06/11 00:39:53;;;;;;;;;;;;;;;19.76;60.25;99787.84;4365618;32;19975;-92
2022/06/11 00:42:20;;;;;;;;;;;;;;;19.72;60.26;99793.44;4365435;32;20050;-92
2022/06/11 00:44:46;;;;;;;;;;;;;;;19.66;60.26;99805.28;4365389;32;19995;-92
2022/06/11 00:47:21;;;;;;;;;;;;;;;19.86;60.27;99807.38;4353195;32;19998;-92
2022/06/11 00:49:49;;;;;;;;;;;;;;;19.77;60.25;99807.19;4353198;32;19983;-92
2022/06/11 00:52:17;;;;;;;;;;;;;;;19.69;60.25;99802.44;4379208;32;20004;-92
2022/06/11 00:54:44;;;;;;;;;;;;;;;19.65;60.26;99805.41;4389712;32;20315;-93
2022/06/11 00:57:09;;;;;;;;;;;;;;;19.72;60.26;99804.88;4368096;32;20389;-93
2022/06/11 00:59:40;;;;;;;;;;;;;;;19.85;60.26;99799.56;4367949;32;20020;-93
2022/06/11 01:02:06;;;;;;;;;;;;;;;19.53;60.24;99807.91;4381290;32;20001;-91
2022/06/11 01:04:37;;;;;;;;;;;;;;;19.55;60.24;99802.53;4367718;32;20256;-90
2022/06/11 01:07:25;;;;;;;;;;;;;;;19.72;60.26;99796.09;4394370;32;20350;-91
2022/06/11 01:09:56;;;;;;;;;;;;;;;19.55;60.25;99800.72;4368262;32;20027;-91
2022/06/11 01:12:25;;;;;;;;;;;;;;;19.57;60.25;99790.06;4389199;32;19970;-91
2022/06/11 01:14:52;;;;;;;;;;;;;;;19.54;60.25;99800.84;4384522;32;19990;-90
2022/06/11 01:17:27;;;;;;;;;;;;;;;19.55;60.25;99797.25;4381398;32;19990;-90
2022/06/11 01:20:11;;;;;;;;;;;;;;;19.57;60.25;99792.69;4381584;32;19978;-89
2022/06/11 01:22:55;;;;;;;;;;;;;;;19.70;60.25;99795.34;4395397;32;19986;-90
2022/06/11 01:25:35;;;;;;;;;;;;;;;19.69;60.25;99794.50;4395649;32;19982;-90
2022/06/11 01:28:01;;;;;;;;;;;;;;;19.62;60.25;99793.22;4395297;32;20085;-90
2022/06/11 01:30:27;;;;;;;;;;;;;;;19.54;60.25;99791.12;4395370;32;19971;-89
2022/06/11 01:32:55;;;;;;;;;;;;;;;19.61;60.24;99794.19;4368894;32;20097;-91
2022/06/11 01:35:26;;;;;;;;;;;;;;;19.67;60.25;99796.41;4381308;32;20433;-90
2022/06/11 01:38:03;;;;;;;;;;;;;;;19.76;60.25;99800.22;4381605;32;20010;-90
2022/06/11 01:40:35;;;;;;;;;;;;;;;19.56;60.25;99805.06;4381825;32;19979;-91
2022/06/11 01:43:30;;;;;;;;;;;;;;;19.57;60.25;99800.63;4368978;32;20302;-90
2022/06/11 01:45:55;;;;;;;;;;;;;;;19.47;60.25;99800.38;4378671;32;19982;-90
2022/06/11 01:48:23;;;;;;;;;;;;;;;19.57;60.24;99800.63;4380968;32;21260;-90
2022/06/11 01:50:50;;;;;;;;;;;;;;;19.49;60.24;99800.28;4368812;32;20461;-90
2022/06/11 01:53:34;;;;;;;;;;;;;;;19.64;60.25;99812.47;4381133;32;20021;-90
2022/06/11 01:56:11;;;;;;;;;;;;;;;19.55;60.25;99811.28;4395193;32;20014;-90
2022/06/11 01:58:43;;;;;;;;;;;;;;;19.43;60.24;99812.09;4395070;32;20010;-91
2022/06/11 02:01:14;;;;;;;;;;;;;;;19.31;60.24;99805.00;4395183;32;19974;-91
2022/06/11 02:03:46;;;;;;;;;;;;;;;19.55;60.25;99813.09;4368701;32;19959;-91
2022/06/11 02:06:14;;;;;;;;;;;;;;;19.51;60.25;99814.22;4381472;32;19987;-92
2022/06/11 02:08:51;;;;;;;;;;;;;;;19.45;60.24;99814.62;4381246;32;20350;-91
2022/06/11 02:11:19;;;;;;;;;;;;;;;19.57;60.25;99819.09;4395014;32;19970;-91
2022/06/11 02:14:03;;;;;;;;;;;;;;;19.45;60.24;99817.28;4381021;32;20538;-90
2022/06/11 02:16:28;;;;;;;;;;;;;;;19.58;60.25;99818.16;4368634;32;19987;-91
2022/06/11 02:18:54;;;;;;;;;;;;;;;19.55;60.25;99823.66;4368702;32;20083;-91
2022/06/11 02:21:24;;;;;;;;;;;;;;;19.60;60.25;99824.16;4381270;32;20299;-91
2022/06/11 02:23:51;;;;;;;;;;;;;;;19.71;60.26;99821.66;4380588;32;20029;-91
2022/06/11 02:26:20;;;;;;;;;;;;;;;19.44;60.23;99821.72;4368551;32;20094;-89
2022/06/11 02:28:45;;;;;;;;;;;;;;;19.33;60.23;99829.50;4381265;32;20008;-91
2022/06/11 02:31:12;;;;;;;;;;;;;;;19.22;60.23;99829.38;4368605;32;19990;-91
2022/06/11 02:33:37;;;;;;;;;;;;;;;19.33;60.23;99819.78;4381046;32;20025;-91
2022/06/11 02:36:06;;;;;;;;;;;;;;;19.35;60.23;99821.47;4381035;32;19979;-91
2022/06/11 02:38:31;;;;;;;;;;;;;;;19.42;60.24;99822.78;4368588;32;19995;-90
2022/06/11 02:40:58;;;;;;;;;;;;;;;19.15;60.22;99834.19;4394425;32;20006;-91
2022/06/11 02:43:23;;;;;;;;;;;;;;;19.25;60.24;99835.28;4394650;32;20373;-91
2022/06/11 02:45:48;;;;;;;;;;;;;;;19.22;60.22;99834.66;4380891;32;19999;-90
2022/06/11 02:48:14;;;;;;;;;;;;;;;19.42;60.24;99828.06;4394854;32;20020;-91
2022/06/11 02:50:39;;;;;;;;;;;;;;;19.36;60.23;99834.56;4380897;32;20076;-90
2022/06/11 02:53:05;;;;;;;;;;;;;;;19.43;60.24;99827.09;4368440;32;19997;-90
2022/06/11 02:55:30;;;;;;;;;;;;;;;19.06;60.22;99836.59;4380908;32;19986;-89
2022/06/11 02:57:55;;;;;;;;;;;;;;;19.06;60.22;99836.59;4380763;32;19994;-90
2022/06/11 03:00:22;;;;;;;;;;;;;;;19.00;60.22;99835.22;4384950;32;19993;-89
2022/06/11 03:02:48;;;;;;;;;;;;;;;19.15;60.22;99841.25;4380926;32;19990;-89
2022/06/11 03:05:15;;;;;;;;;;;;;;;19.06;60.22;99849.78;4394606;32;19998;-90
2022/06/11 03:07:40;;;;;;;;;;;;;;;19.20;60.23;99845.31;4393202;32;19994;-89
2022/06/11 03:10:06;;;;;;;;;;;;;;;19.24;60.23;99844.16;4380531;32;20405;-89
2022/06/11 03:12:31;;;;;;;;;;;;;;;19.06;60.22;99842.72;4394718;32;20062;-89
2022/06/11 03:14:57;;;;;;;;;;;;;;;18.95;60.22;99840.78;4394487;32;20002;-89
2022/06/11 03:17:22;;;;;;;;;;;;;;;18.69;60.21;99842.47;4380656;32;20001;-89
2022/06/11 03:19:47;;;;;;;;;;;;;;;18.82;60.20;99836.41;4380712;32;20353;-89
2022/06/11 03:22:13;;;;;;;;;;;;;;;18.87;60.21;99842.22;4380653;32;20004;-89
2022/06/11 03:24:38;;;;;;;;;;;;;;;18.64;60.20;99833.16;4380093;32;23109;-89
2022/06/11 03:27:03;;;;;;;;;;;;;;;18.54;60.20;99846.03;4380870;32;20005;-90
2022/06/11 03:29:29;;;;;;;;;;;;;;;18.85;60.21;99839.69;4368322;32;20247;-89
2022/06/11 03:31:54;;;;;;;;;;;;;;;18.65;60.19;99850.66;4380750;32;20247;-90
2022/06/11 03:34:19;;;;;;;;;;;;;;;18.71;60.21;99855.56;4380437;32;20045;-90
2022/06/11 03:36:45;;;;;;;;;;;;;;;18.86;60.21;99865.09;4380941;32;19990;-92
2022/06/11 03:39:12;;;;;;;;;;;;;;;18.89;60.21;99879.87;4368295;32;20307;-92
2022/06/11 03:41:37;;;;;;;;;;;;;;;19.05;60.22;99882.41;4380853;32;20058;-88
2022/06/11 03:44:03;;;;;;;;;;;;;;;19.21;60.23;99878.66;4379975;32;22636;-89
2022/06/11 03:46:29;;;;;;;;;;;;;;;19.65;60.25;99866.13;4380707;32;20042;-91
2022/06/11 03:48:54;;;;;;;;;;;;;;;19.73;60.26;99869.09;4368401;32;19974;-91
2022/06/11 03:51:19;;;;;;;;;;;;;;;19.42;60.23;99865.84;4368513;32;20025;-92
2022/06/11 03:53:45;;;;;;;;;;;;;;;19.56;60.24;99871.06;4367866;32;20365;-91
2022/06/11 03:56:10;;;;;;;;;;;;;;;19.44;60.24;99860.47;4368451;32;20020;-91
2022/06/11 03:58:36;;;;;;;;;;;;;;;19.52;60.24;99861.63;4380877;32;20329;-91
2022/06/11 04:01:16;;;;;;;;;;;;;;;19.36;60.23;99855.69;4368028;32;20275;-91
2022/06/11 04:03:48;;;;;;;;;;;;;;;19.58;60.24;99863.87;4382114;32;19974;-91
2022/06/11 04:06:13;;;;;;;;;;;;;;;19.76;60.25;99861.81;4380496;32;20371;-89
2022/06/11 04:08:38;;;;;;;;;;;;;;;19.98;60.27;99865.63;4367915;32;19979;-88
2022/06/11 04:11:04;;;;;;;;;;;;;;;20.16;60.28;99857.25;4380482;32;19994;-87
2022/06/11 04:13:29;;;;;;;;;;;;;;;20.37;60.29;99859.34;4380307;32;20025;-88
2022/06/11 04:15:55;;;;;;;;;;;;;;;20.48;60.29;99859.47;4367803;32;20008;-87
2022/06/11 04:18:29;;;;;;;;;;;;;;;20.79;60.31;99866.88;4380289;32;20247;-88
2022/06/11 04:20:54;;;;;;;;;;;;;;;20.66;60.30;99862.59;4367833;32;19967;-87
2022/06/11 04:23:20;;;;;;;;;;;;;;;20.89;60.31;99867.06;4380093;32;20416;-87
2022/06/11 04:25:45;;;;;;;;;;;;;;;21.08;60.32;99856.84;4380232;32;20007;-87
2022/06/11 04:28:11;;;;;;;;;;;;;;;21.31;60.33;99854.31;4380113;32;19998;-87
2022/06/11 04:30:36;;;;;;;;;;;;;;;21.27;60.34;99851.03;4393946;32;19970;-87
2022/06/11 04:33:01;;;;;;;;;;;;;;;21.38;60.33;99850.25;4379806;32;19978;-87
2022/06/11 04:35:27;;;;;;;;;;;;;;;21.26;60.33;99848.50;4379685;32;23477;-87
2022/06/11 04:37:52;;;;;;;;;;;;;;;21.31;60.33;99852.50;4367273;32;19979;-88
2022/06/11 04:40:18;;;;;;;;;;;;;;;21.56;60.34;99861.25;4367088;32;23690;-88
2022/06/11 04:42:43;;;;;;;;;;;;;;;21.67;60.35;99848.03;4367519;32;19990;-88
2022/06/11 04:45:08;;;;;;;;;;;;;;;21.54;60.34;99863.19;4379416;32;20363;-88
2022/06/11 04:47:34;;;;;;;;;;;;;;;21.76;60.36;99858.75;4383428;32;19994;-88
2022/06/11 04:50:00;;;;;;;;;;;;;;;21.58;60.35;99852.25;4379769;32;20025;-88
2022/06/11 04:52:25;;;;;;;;;;;;;;;21.82;60.36;99857.47;4367311;32;20001;-86
2022/06/11 04:54:50;;;;;;;;;;;;;;;21.64;60.36;99872.13;4366957;32;20568;-87
2022/06/11 04:57:16;;;;;;;;;;;;;;;21.71;60.36;99870.69;4393139;32;20336;-88
2022/06/11 04:59:41;;;;;;;;;;;;;;;21.81;60.36;99876.12;4393465;32;20042;-87
2022/06/11 05:02:06;;;;;;;;;;;;;;;21.92;60.36;99871.69;4379748;32;20017;-88
2022/06/11 05:04:31;;;;;;;;;;;;;;;22.08;60.37;99874.03;4378968;32;24544;-88
2022/06/11 05:06:57;;;;;;;;;;;;;;;22.15;60.38;99874.41;4379617;32;19986;-88
2022/06/11 05:09:22;;;;;;;;;;;;;;;22.21;60.39;99880.06;4379458;32;20031;-88
2022/06/11 05:11:48;;;;;;;;;;;;;;;22.24;60.38;99877.19;4393306;32;19978;-88
2022/06/11 05:14:13;;;;;;;;;;;;;;;22.25;60.38;99878.03;4393228;32;20026;-89
2022/06/11 05:16:41;;;;;;;;;;;;;;;22.07;60.37;99888.25;4366980;32;20002;-88
2022/06/11 05:19:06;;;;;;;;;;;;;;;22.09;60.37;99890.78;4379323;32;20385;-88
2022/06/11 05:21:31;;;;;;;;;;;;;;;22.15;60.38;99895.59;4379528;32;19979;-88
2022/06/11 05:23:56;;;;;;;;;;;;;;;22.31;60.39;99896.94;4378671;32;27716;-88
2022/06/11 05:26:24;;;;;;;;;;;;;;;22.36;60.39;99894.78;4366396;32;25757;-87
2022/06/11 05:28:50;;;;;;;;;;;;;;;22.33;60.39;99892.38;4366781;32;20000;-87
2022/06/11 05:31:15;;;;;;;;;;;;;;;22.61;60.40;99895.50;4379479;32;19986;-87
2022/06/11 05:33:40;;;;;;;;;;;;;;;22.54;60.40;99894.31;4379308;32;20029;-87
2022/06/11 05:36:06;;;;;;;;;;;;;;;22.62;60.40;99894.53;4366343;32;24407;-87
2022/06/11 05:38:31;;;;;;;;;;;;;;;22.53;60.39;99893.47;4379260;32;19979;-87
2022/06/11 05:40:57;;;;;;;;;;;;;;;22.56;60.39;99895.03;4379258;32;20006;-87
2022/06/11 05:43:22;;;;;;;;;;;;;;;22.30;60.39;99899.72;4392775;32;20259;-87
2022/06/11 05:45:52;;;;;;;;;;;;;;;22.59;60.41;99890.31;4378564;32;29556;-87
2022/06/11 05:48:17;;;;;;;;;;;;;;;22.60;60.41;99899.97;4366314;32;20012;-87
2022/06/11 05:50:45;;;;;;;;;;;;;;;22.55;60.39;99894.19;4377511;32;19998;-88
2022/06/11 05:53:11;;;;;;;;;;;;;;;22.52;60.40;99905.03;4365364;32;20057;-88
2022/06/11 05:55:37;;;;;;;;;;;;;;;22.50;60.40;99904.31;4392181;32;20300;-88
2022/06/11 05:58:03;;;;;;;;;;;;;;;22.41;60.39;99901.53;4393425;32;19989;-88
2022/06/11 06:00:29;;;;;;;;;;;;;;;22.41;60.39;99906.84;4381261;32;20005;-87
2022/06/11 06:02:54;;;;;;;;;;;;;;;22.59;60.41;99905.38;4368256;32;20647;-88
2022/06/11 06:05:21;;;;;;;;;;;;;;;22.49;60.41;99915.06;4368699;32;20025;-87
2022/06/11 06:07:47;;;;;;;;;;;;;;;22.71;60.41;99915.00;4368726;32;19994;-88
2022/06/11 06:10:12;;;;;;;;;;;;;;;22.85;60.42;99916.59;4394471;32;26024;-87
2022/06/11 06:12:37;;;;;;;;;;;;;;;22.85;60.42;99912.13;4381255;32;20011;-88
2022/06/11 06:15:04;;;;;;;;;;;;;;;23.01;60.42;99909.09;4381310;32;20029;-88
2022/06/11 06:17:29;;;;;;;;;;;;;;;23.32;60.44;99907.44;4381168;32;19997;-88
2022/06/11 06:19:54;;;;;;;;;;;;;;;23.41;60.44;99908.47;4394933;32;19993;-87
2022/06/11 06:22:19;;;;;;;;;;;;;;;23.56;60.45;99908.09;4368679;32;20033;-88
2022/06/11 06:24:47;;;;;;;;;;;;;;;23.77;60.46;99910.75;4394494;32;27058;-88
2022/06/11 06:27:12;;;;;;;;;;;;;;;23.95;60.47;99903.06;4395132;32;19979;-87
2022/06/11 06:29:37;;;;;;;;;;;;;;;23.85;60.46;99886.19;4381484;32;20217;-88
2022/06/11 06:32:03;;;;;;;;;;;;;;;23.63;60.45;99902.25;4396603;32;19983;-89
2022/06/11 06:34:28;;;;;;;;;;;;;;;23.57;60.46;99893.81;4405449;32;20021;-87
2022/06/11 06:36:53;;;;;;;;;;;;;;;23.82;60.47;99891.75;4395197;32;19967;-88
2022/06/11 06:39:18;;;;;;;;;;;;;;;24.24;60.49;99889.06;4394845;32;20001;-88
2022/06/11 06:41:44;;;;;;;;;;;;;;;24.26;60.48;99890.62;4380908;32;20086;-87
2022/06/11 06:44:09;;;;;;;;;;;;;;;24.34;60.49;99893.47;4394726;32;20232;-87
2022/06/11 06:46:34;;;;;;;;;;;;;;;24.34;60.49;99889.97;4380736;32;20038;-87
2022/06/11 06:49:00;;;;;;;;;;;;;;;24.68;60.51;99902.03;4380118;32;28189;-87
2022/06/11 06:51:25;;;;;;;;;;;;;;;25.11;60.53;99892.91;4380872;32;20294;-87
2022/06/11 06:53:50;;;;;;;;;;;;;;;25.30;60.54;99887.56;4368064;32;20001;-88
2022/06/11 06:56:15;;;;;;;;;;;;;;;25.35;60.54;99889.84;4380260;32;19975;-88
2022/06/11 06:58:41;;;;;;;;;;;;;;;25.38;60.54;99897.56;4380593;32;19995;-87
2022/06/11 07:01:06;;;;;;;;;;;;;;;25.46;60.55;99896.84;4394385;32;20034;-88
2022/06/11 07:03:32;;;;;;;;;;;;;;;25.48;60.55;99902.87;4394288;32;19997;-87
2022/06/11 07:05:57;;;;;;;;;;;;;;;25.51;60.55;99905.25;4394469;32;19982;-88
2022/06/11 07:08:22;;;;;;;;;;;;;;;25.47;60.56;99904.69;4380204;32;20006;-88
2022/06/11 07:10:48;;;;;;;;;;;;;;;25.36;60.55;99903.03;4380650;32;20005;-87
2022/06/11 07:13:13;;;;;;;;;;;;;;;25.24;60.54;99911.28;4394306;32;20299;-88
2022/06/11 07:15:39;;;;;;;;;;;;;;;25.52;60.55;99896.28;4394127;32;19989;-88
2022/06/11 07:18:08;;;;;;;;;;;;;;;25.76;60.56;99899.38;4380717;32;19989;-88
2022/06/11 07:20:34;;;;;;;;;;;;;;;25.90;60.57;99901.59;4380881;32;19998;-88
2022/06/11 07:22:59;;;;;;;;;;;;;;;25.99;60.58;99898.06;4380730;32;20005;-88
2022/06/11 07:25:24;;;;;;;;;;;;;;;26.10;60.59;99901.56;4394286;32;20283;-87
2022/06/11 07:27:55;;;;;;;;;;;;;;;25.89;60.57;99899.94;4380126;32;20057;-87
2022/06/11 07:30:21;;;;;;;;;;;;;;;25.94;60.58;99900.34;4368108;32;20012;-88
2022/06/11 07:32:47;;;;;;;;;;;;;;;26.00;60.58;99897.09;4394157;32;19978;-87
2022/06/11 07:35:13;;;;;;;;;;;;;;;25.97;60.58;99894.69;4394314;32;20077;-88
2022/06/11 07:37:39;;;;;;;;;;;;;;;26.08;60.58;99892.88;4380416;32;20006;-88
2022/06/11 07:40:04;;;;;;;;;;;;;;;26.09;60.58;99905.22;4380726;32;19986;-88
2022/06/11 07:42:30;;;;;;;;;;;;;;;26.04;60.58;99897.66;4394300;32;19978;-88
2022/06/11 07:44:55;;;;;;;;;;;;;;;25.96;60.58;99894.84;4380667;32;19974;-87
2022/06/11 07:47:53;;;;;;;;;;;;;;;26.28;60.60;99889.16;4394371;32;20020;-88
2022/06/11 07:50:06;;;;;;;;;;;;;;;26.50;60.61;99883.47;4393968;32;20000;-87
2022/06/11 07:52:31;;;;;;;;;;;;;;;26.48;60.60;99892.59;4367760;32;19986;-87
2022/06/11 07:54:56;;;;;;;;;;;;;;;26.65;60.62;99894.50;4393173;32;29670;-87
2022/06/11 07:57:21;;;;;;;;;;;;;;;26.67;60.61;99892.50;4379603;32;31128;-87
2022/06/11 07:59:47;;;;;;;;;;;;;;;26.85;60.63;99896.06;4380115;32;19996;-87
2022/06/11 08:02:12;;;;;;;;;;;;;;;27.05;60.64;99888.81;4379984;32;19970;-88
2022/06/11 08:04:37;;;;;;;;;;;;;;;26.99;60.63;99892.09;4380197;32;19995;-88
2022/06/11 08:07:02;;;;;;;;;;;;;;;27.03;60.65;99895.31;4393575;32;24168;-89
2022/06/11 08:09:28;;;;;;;;;;;;;;;27.12;60.64;99897.91;4394010;32;19994;-88
2022/06/11 08:11:53;;;;;;;;;;;;;;;27.24;60.65;99892.34;4393626;32;20026;-88
2022/06/11 08:14:18;;;;;;;;;;;;;;;27.30;60.65;99897.06;4380084;32;19978;-88
2022/06/11 08:16:43;;;;;;;;;;;;;;;27.26;60.64;99896.53;4393573;32;23064;-88
2022/06/11 08:19:09;;;;;;;;;;;;;;;27.52;60.66;99891.25;4367705;32;19990;-88
2022/06/11 08:21:34;;;;;;;;;;;;;;;27.53;60.66;99888.44;4378942;32;20000;-88
2022/06/11 08:23:59;;;;;;;;;;;;;;;27.74;60.66;99893.47;4393097;32;30079;-89
2022/06/11 08:26:24;;;;;;;;;;;;;;;27.74;60.67;99889.97;4367601;32;20021;-89
2022/06/11 08:28:49;;;;;;;;;;;;;;;27.77;60.67;99887.81;4391988;32;24052;-88
2022/06/11 08:31:15;;;;;;;;;;;;;;;27.86;60.68;99885.19;4393455;32;20276;-88
2022/06/11 08:33:40;;;;;;;;;;;;;;;27.83;60.68;99884.50;4379825;32;20306;-88
2022/06/11 08:36:05;;;;;;;;;;;;;;;27.81;60.67;99891.00;4367313;32;19986;-89
2022/06/11 08:38:30;;;;;;;;;;;;;;;28.03;60.69;99882.47;4393789;32;20055;-89
2022/06/11 08:40:56;;;;;;;;;;;;;;;28.21;60.70;99886.94;4379611;32;20261;-88
2022/06/11 08:43:24;;;;;;;;;;;;;;;28.52;60.70;99888.13;4393446;32;19982;-88
2022/06/11 08:45:53;;;;;;;;;;;;;;;28.37;60.70;99879.00;4393759;32;20005;-88
2022/06/11 08:48:25;;;;;;;;;;;;;;;28.62;60.71;99877.25;4367304;32;20014;-88
2022/06/11 08:51:13;;;;;;;;;;;;;;;28.65;60.72;99871.59;4392416;32;19971;-88
2022/06/11 08:53:39;;;;;;;;;;;;;;;28.86;60.73;99873.84;4357672;32;20020;-88
2022/06/11 08:56:05;;;;;;;;;;;;;;;28.83;60.72;99877.66;4379820;32;20014;-88
2022/06/11 08:58:37;;;;;;;;;;;;;;;28.91;60.73;99875.06;4379826;32;20032;-87
2022/06/11 09:01:12;;;;;;;;;;;;;;;28.90;60.73;99865.34;4379747;32;20394;-86
2022/06/11 09:03:43;;;;;;;;;;;;;;;28.70;60.71;99871.97;4393397;32;20006;-86
2022/06/11 09:06:34;;;;;;;;;;;;;;;28.63;60.72;99866.41;4393409;32;20035;-85
2022/06/11 09:09:04;;;;;;;;;;;;;;;28.78;60.72;99868.44;4389602;32;19986;-85
2022/06/11 09:11:32;;;;;;;;;;;;;;;28.88;60.73;99871.87;4379650;32;19975;-85
2022/06/11 09:14:09;;;;;;;;;;;;;;;28.98;60.73;99867.19;4393293;32;20029;-86
2022/06/11 09:16:34;;;;;;;;;;;;;;;29.25;60.75;99877.63;4393261;32;20081;-85
2022/06/11 09:19:18;;;;;;;;;;;;;;;29.33;60.76;99858.00;4379435;32;20316;-86
2022/06/11 09:21:43;;;;;;;;;;;;;;;29.38;60.75;99871.78;4393220;32;19979;-85
2022/06/11 09:24:27;;;;;;;;;;;;;;;29.43;60.76;99869.44;4393123;32;19984;-84
2022/06/11 09:26:58;;;;;;;;;;;;;;;29.25;60.76;99864.22;4393346;32;19979;-85
2022/06/11 09:29:44;;;;;;;;;;;;;;;29.30;60.75;99861.88;4393463;32;19998;-84
2022/06/11 09:32:14;;;;;;;;;;;;;;;29.51;60.76;99866.78;4380504;32;20017;-84
2022/06/11 09:34:42;;;;;;;;;;;;;;;29.71;60.77;99853.03;4381623;32;20030;-84
2022/06/11 09:37:10;;;;;;;;;;;;;;;29.98;60.78;99858.00;4381545;32;20374;-83
2022/06/11 09:39:36;;;;;;;;;;;;;;;30.05;60.79;99850.13;4381477;32;19994;-84
2022/06/11 09:42:01;;;;;;;;;;;;;;;30.14;60.79;99855.31;4394918;32;20285;-83
2022/06/11 09:44:38;;;;;;;;;;;;;;;30.29;60.81;99842.03;4394875;32;20296;-83
2022/06/11 09:47:06;;;;;;;;;;;;;;;30.25;60.80;99846.88;4381135;32;20012;-83
2022/06/11 09:49:34;;;;;;;;;;;;;;;30.11;60.79;99852.97;4394914;32;20031;-83
2022/06/11 09:52:05;;;;;;;;;;;;;;;30.02;60.79;99845.91;4381085;32;20389;-83
2022/06/11 09:54:36;;;;;;;;;;;;;;;29.81;60.78;99846.47;4394632;32;19975;-83
2022/06/11 09:57:04;;;;;;;;;;;;;;;29.77;60.78;99842.44;4394989;32;20037;-83
2022/06/11 09:59:32;;;;;;;;;;;;;;;29.87;60.78;99829.69;4381108;32;19999;-83
2022/06/11 10:05:02;;;;;;;;;;;;;;;30.32;60.80;99843.53;4391159;32;20311;-83
2022/06/11 10:07:32;;;;;;;;;;;;;;;30.29;60.82;99846.56;4394853;32;20040;-83
2022/06/11 10:10:11;;;;;;;;;;;;;;;30.28;60.80;99847.53;4381157;32;20592;-83
2022/06/11 10:12:39;;;;;;;;;;;;;;;29.92;60.78;99853.31;4380937;32;20023;-83
2022/06/11 10:15:13;;;;;;;;;;;;;;;29.92;60.78;99848.78;4381063;32;20024;-83
2022/06/11 10:17:57;;;;;;;;;;;;;;;30.05;60.79;99848.31;4381026;32;20004;-84
2022/06/11 10:20:30;;;;;;;;;;;;;;;30.16;60.80;99850.59;4393666;32;20065;-83
2022/06/11 10:23:08;;;;;;;;;;;;;;;30.02;60.79;99839.69;4394853;32;19975;-84
2022/06/11 10:25:33;;;;;;;;;;;;;;;29.60;60.77;99849.69;4394641;32;20363;-84
2022/06/11 10:28:00;;;;;;;;;;;;;;;29.50;60.77;99850.84;4394672;32;19979;-84
2022/06/11 10:30:28;;;;;;;;;;;;;;;29.27;60.76;99837.25;4380962;32;20374;-84
2022/06/11 10:32:54;;;;;;;;;;;;;;;29.37;60.77;99842.47;4368335;32;19994;-84
2022/06/11 10:35:23;;;;;;;;;;;;;;;29.43;60.77;99839.09;4380916;32;19979;-84
2022/06/11 10:37:50;;;;;;;;;;;;;;;29.49;60.77;99836.59;4380846;32;20001;-84
2022/06/11 10:40:18;;;;;;;;;;;;;;;29.44;60.77;99836.25;4368354;32;20048;-84
2022/06/11 10:42:44;;;;;;;;;;;;;;;29.30;60.76;99843.09;4367776;32;20003;-84
2022/06/11 10:45:13;;;;;;;;;;;;;;;29.25;60.76;99833.91;4367947;32;19978;-84
2022/06/11 10:47:39;;;;;;;;;;;;;;;29.25;60.76;99837.41;4380802;32;20001;-84
2022/06/11 10:50:14;;;;;;;;;;;;;;;29.13;60.76;99843.28;4368370;32;20058;-85
2022/06/11 10:52:45;;;;;;;;;;;;;;;29.20;60.76;99833.56;4380613;32;19975;-85
2022/06/11 10:55:12;;;;;;;;;;;;;;;29.10;60.75;99846.28;4394424;32;20030;-84
2022/06/11 10:57:37;;;;;;;;;;;;;;;29.06;60.75;99850.28;4380859;32;19995;-84
2022/06/11 11:00:09;;;;;;;;;;;;;;;29.27;60.76;99843.44;4380771;32;20280;-84
2022/06/11 11:02:36;;;;;;;;;;;;;;;29.21;60.76;99843.28;4380561;32;20031;-85
2022/06/11 11:05:09;;;;;;;;;;;;;;;29.16;60.76;99846.47;4380609;32;19974;-85
2022/06/11 11:07:41;;;;;;;;;;;;;;;29.17;60.76;99836.59;4380752;32;19994;-85
2022/06/11 11:10:17;;;;;;;;;;;;;;;28.78;60.74;99837.12;4380729;32;20358;-85
2022/06/11 11:12:42;;;;;;;;;;;;;;;28.74;60.73;99836.62;4368176;32;19992;-85
2022/06/11 11:15:14;;;;;;;;;;;;;;;28.72;60.73;99841.31;4367386;32;29108;-86
2022/06/11 11:17:47;;;;;;;;;;;;;;;28.63;60.73;99839.63;4380636;32;20013;-85
2022/06/11 11:20:33;;;;;;;;;;;;;;;28.47;60.72;99841.41;4380611;32;20054;-85
2022/06/11 11:23:03;;;;;;;;;;;;;;;28.42;60.72;99826.66;4381603;32;20040;-85
2022/06/11 11:25:35;;;;;;;;;;;;;;;28.67;60.73;99830.25;4380637;32;19983;-85
2022/06/11 11:28:00;;;;;;;;;;;;;;;29.12;60.75;99822.84;4394282;32;20311;-85
2022/06/11 11:30:43;;;;;;;;;;;;;;;29.26;60.76;99816.81;4380033;32;22204;-85
2022/06/11 11:33:23;;;;;;;;;;;;;;;29.47;60.77;99816.31;4380652;32;19994;-85
2022/06/11 11:35:48;;;;;;;;;;;;;;;29.45;60.77;99816.50;4368066;32;19982;-85
2022/06/11 11:38:15;;;;;;;;;;;;;;;29.53;60.77;99815.66;4393552;32;28563;-85
2022/06/11 11:40:49;;;;;;;;;;;;;;;29.71;60.79;99813.62;4380496;32;20393;-85
2022/06/11 11:43:14;;;;;;;;;;;;;;;30.01;60.79;99803.13;4380303;32;19971;-85
2022/06/11 11:45:47;;;;;;;;;;;;;;;29.98;60.80;99803.47;4367857;32;19989;-85
2022/06/11 11:48:20;;;;;;;;;;;;;;;30.23;60.81;99792.50;4380427;32;20033;-85
2022/06/11 11:50:45;;;;;;;;;;;;;;;30.22;60.81;99798.06;4380483;32;20306;-84
2022/06/11 11:53:20;;;;;;;;;;;;;;;30.06;60.80;99796.28;4393841;32;19989;-85
2022/06/11 11:55:53;;;;;;;;;;;;;;;29.81;60.79;99792.81;4380459;32;19990;-84
2022/06/11 11:58:21;;;;;;;;;;;;;;;29.77;60.79;99790.63;4380505;32;20362;-85
2022/06/11 12:00:52;;;;;;;;;;;;;;;29.98;60.79;99793.59;4380523;32;20008;-85
2022/06/11 12:03:20;;;;;;;;;;;;;;;29.96;60.79;99795.59;4380176;32;20398;-85
2022/06/11 12:05:52;;;;;;;;;;;;;;;29.98;60.80;99790.91;4394066;32;20251;-84
2022/06/11 12:08:37;;;;;;;;;;;;;;;30.10;60.80;99789.56;4380354;32;20017;-84
2022/06/11 12:11:03;;;;;;;;;;;;;;;30.15;60.80;99787.19;4393570;32;20034;-84
2022/06/11 12:13:28;;;;;;;;;;;;;;;30.32;60.81;99787.13;4380397;32;19989;-84
2022/06/11 12:16:01;;;;;;;;;;;;;;;30.40;60.82;99782.53;4393926;32;19992;-84
2022/06/11 12:18:27;;;;;;;;;;;;;;;30.44;60.82;99786.53;4394000;32;19982;-84
2022/06/11 12:20:53;;;;;;;;;;;;;;;30.38;60.81;99781.88;4380319;32;19998;-84
2022/06/11 12:23:28;;;;;;;;;;;;;;;30.34;60.81;99788.63;4380055;32;19981;-84
2022/06/11 12:25:55;;;;;;;;;;;;;;;29.95;60.79;99788.56;4380287;32;19982;-85
2022/06/11 12:28:21;;;;;;;;;;;;;;;29.83;60.79;99789.97;4380340;32;20050;-84
2022/06/11 12:30:47;;;;;;;;;;;;;;;29.53;60.77;99792.34;4380191;32;20281;-84
2022/06/11 12:33:12;;;;;;;;;;;;;;;29.77;60.79;99787.94;4380107;32;19975;-84
2022/06/11 12:35:57;;;;;;;;;;;;;;;30.01;60.80;99795.91;4380073;32;19971;-84
2022/06/11 12:38:33;;;;;;;;;;;;;;;29.96;60.79;99787.56;4394051;32;20381;-84
2022/06/11 12:40:59;;;;;;;;;;;;;;;29.79;60.78;99785.91;4380299;32;20097;-84
2022/06/11 12:43:30;;;;;;;;;;;;;;;29.84;60.79;99784.41;4393688;32;20098;-84
2022/06/11 12:46:11;;;;;;;;;;;;;;;29.85;60.79;99785.25;4379876;32;20281;-85
2022/06/11 12:48:50;;;;;;;;;;;;;;;29.78;60.79;99789.63;4379987;32;20181;-84
2022/06/11 12:51:17;;;;;;;;;;;;;;;29.85;60.79;99785.25;4380005;32;20042;-85
2022/06/11 12:53:47;;;;;;;;;;;;;;;30.01;60.79;99781.66;4367250;32;19987;-84
2022/06/11 12:56:24;;;;;;;;;;;;;;;30.00;60.80;99780.00;4380225;32;19993;-84